sensor_id;sensor_type;location;lat;lon;timestamp;temperature;humidity
37158;DHT22;23050;51.776;22.638;2022-07-24T00:02:03;19.50;99.90
37158;DHT22;23050;51.776;22.638;2022-07-24T00:04:29;19.40;99.90
37158;DHT22;23050;51.776;22.638;2022-07-24T00:06:55;19.40;99.90
37158;DHT22;23050;51.776;22.638;2022-07-24T00:09:20;19.40;99.90
37158;DHT22;23050;51.776;22.638;2022-07-24T00:11:46;19.30;99.90
37158;DHT22;23050;51.776;22.638;2022-07-24T00:14:11;19.30;99.90
37158;DHT22;23050;51.776;22.638;2022-07-24T00:16:37;19.20;99.90
37158;DHT22;23050;51.776;22.638;2022-07-24T00:19:03;19.20;99.90
37158;DHT22;23050;51.776;22.638;2022-07-24T00:21:28;19.20;99.90
37158;DHT22;23050;51.776;22.638;2022-07-24T00:23:54;19.20;99.90
37158;DHT22;23050;51.776;22.638;2022-07-24T00:26:20;19.10;99.90
37158;DHT22;23050;51.776;22.638;2022-07-24T00:28:45;19.10;99.90
37158;DHT22;23050;51.776;22.638;2022-07-24T00:31:11;19.10;99.90
37158;DHT22;23050;51.776;22.638;2022-07-24T00:33:37;19.10;99.90
37158;DHT22;23050;51.776;22.638;2022-07-24T00:36:02;19.10;99.90
37158;DHT22;23050;51.776;22.638;2022-07-24T00:38:28;19.10;99.90
37158;DHT22;23050;51.776;22.638;2022-07-24T00:40:54;19.10;99.90
37158;DHT22;23050;51.776;22.638;2022-07-24T00:43:19;19.10;99.90
37158;DHT22;23050;51.776;22.638;2022-07-24T00:45:46;19.10;99.90
37158;DHT22;23050;51.776;22.638;2022-07-24T00:48:12;19.00;99.90
37158;DHT22;23050;51.776;22.638;2022-07-24T00:50:38;18.90;99.90
37158;DHT22;23050;51.776;22.638;2022-07-24T00:53:04;18.90;99.90
37158;DHT22;23050;51.776;22.638;2022-07-24T00:55:30;18.90;99.90
37158;DHT22;23050;51.776;22.638;2022-07-24T00:57:57;18.90;99.90
37158;DHT22;23050;51.776;22.638;2022-07-24T01:00:23;18.90;99.90
37158;DHT22;23050;51.776;22.638;2022-07-24T01:02:49;18.80;99.90
37158;DHT22;23050;51.776;22.638;2022-07-24T01:05:15;18.90;99.90
37158;DHT22;23050;51.776;22.638;2022-07-24T01:07:41;18.80;99.90
37158;DHT22;23050;51.776;22.638;2022-07-24T01:10:07;18.80;99.90
37158;DHT22;23050;51.776;22.638;2022-07-24T01:12:35;18.80;99.90
37158;DHT22;23050;51.776;22.638;2022-07-24T01:15:03;18.80;99.90
37158;DHT22;23050;51.776;22.638;2022-07-24T01:17:34;18.70;99.90
37158;DHT22;23050;51.776;22.638;2022-07-24T01:20:00;18.70;99.90
37158;DHT22;23050;51.776;22.638;2022-07-24T01:22:27;18.70;99.90
37158;DHT22;23050;51.776;22.638;2022-07-24T01:24:54;18.70;99.90
37158;DHT22;23050;51.776;22.638;2022-07-24T01:27:24;18.70;99.90
37158;DHT22;23050;51.776;22.638;2022-07-24T01:29:51;18.70;99.90
37158;DHT22;23050;51.776;22.638;2022-07-24T01:32:17;18.70;99.90
37158;DHT22;23050;51.776;22.638;2022-07-24T01:34:42;18.70;99.90
37158;DHT22;23050;51.776;22.638;2022-07-24T01:37:08;18.70;99.90
37158;DHT22;23050;51.776;22.638;2022-07-24T01:39:34;18.70;99.90
37158;DHT22;23050;51.776;22.638;2022-07-24T01:41:59;18.70;99.90
37158;DHT22;23050;51.776;22.638;2022-07-24T01:44:25;18.70;99.90
37158;DHT22;23050;51.776;22.638;2022-07-24T01:46:50;18.70;99.90
37158;DHT22;23050;51.776;22.638;2022-07-24T01:49:16;18.70;99.90
37158;DHT22;23050;51.776;22.638;2022-07-24T01:51:42;18.70;99.90
37158;DHT22;23050;51.776;22.638;2022-07-24T01:54:07;18.70;99.90
37158;DHT22;23050;51.776;22.638;2022-07-24T01:56:33;18.70;99.90
37158;DHT22;23050;51.776;22.638;2022-07-24T01:58:59;18.70;99.90
37158;DHT22;23050;51.776;22.638;2022-07-24T02:01:25;18.70;99.90
37158;DHT22;23050;51.776;22.638;2022-07-24T02:03:51;18.70;99.90
37158;DHT22;23050;51.776;22.638;2022-07-24T02:06:17;18.70;99.90
37158;DHT22;23050;51.776;22.638;2022-07-24T02:08:44;18.70;99.90
37158;DHT22;23050;51.776;22.638;2022-07-24T02:11:09;18.70;99.90
37158;DHT22;23050;51.776;22.638;2022-07-24T02:13:35;18.70;99.90
37158;DHT22;23050;51.776;22.638;2022-07-24T02:16:01;18.80;99.90
37158;DHT22;23050;51.776;22.638;2022-07-24T02:18:26;18.70;99.90
37158;DHT22;23050;51.776;22.638;2022-07-24T02:20:53;18.70;99.90
37158;DHT22;23050;51.776;22.638;2022-07-24T02:23:19;18.80;99.90
37158;DHT22;23050;51.776;22.638;2022-07-24T02:25:46;18.80;99.90
37158;DHT22;23050;51.776;22.638;2022-07-24T02:28:12;18.70;99.90
37158;DHT22;23050;51.776;22.638;2022-07-24T02:30:38;18.80;99.90
37158;DHT22;23050;51.776;22.638;2022-07-24T02:33:04;18.70;99.90
37158;DHT22;23050;51.776;22.638;2022-07-24T02:35:29;18.70;99.90
37158;DHT22;23050;51.776;22.638;2022-07-24T02:37:56;18.70;99.90
37158;DHT22;23050;51.776;22.638;2022-07-24T02:40:22;18.70;99.90
37158;DHT22;23050;51.776;22.638;2022-07-24T02:42:47;18.70;99.90
37158;DHT22;23050;51.776;22.638;2022-07-24T02:45:13;18.70;99.90
37158;DHT22;23050;51.776;22.638;2022-07-24T02:47:50;18.70;99.90
37158;DHT22;23050;51.776;22.638;2022-07-24T02:50:16;18.70;99.90
37158;DHT22;23050;51.776;22.638;2022-07-24T02:52:42;18.80;99.90
37158;DHT22;23050;51.776;22.638;2022-07-24T02:55:08;18.70;99.90
37158;DHT22;23050;51.776;22.638;2022-07-24T02:57:35;18.80;99.90
37158;DHT22;23050;51.776;22.638;2022-07-24T03:00:03;18.80;99.90
37158;DHT22;23050;51.776;22.638;2022-07-24T03:02:28;18.80;99.90
37158;DHT22;23050;51.776;22.638;2022-07-24T03:04:54;18.80;99.90
37158;DHT22;23050;51.776;22.638;2022-07-24T03:07:20;18.80;99.90
37158;DHT22;23050;51.776;22.638;2022-07-24T03:09:45;18.80;99.90
37158;DHT22;23050;51.776;22.638;2022-07-24T03:12:11;18.80;99.90
37158;DHT22;23050;51.776;22.638;2022-07-24T03:14:36;18.80;99.90
37158;DHT22;23050;51.776;22.638;2022-07-24T03:17:03;18.90;99.90
37158;DHT22;23050;51.776;22.638;2022-07-24T03:19:29;18.90;99.90
37158;DHT22;23050;51.776;22.638;2022-07-24T03:21:55;18.90;99.90
37158;DHT22;23050;51.776;22.638;2022-07-24T03:24:20;18.90;99.90
37158;DHT22;23050;51.776;22.638;2022-07-24T03:26:46;18.90;99.90
37158;DHT22;23050;51.776;22.638;2022-07-24T03:29:12;19.00;99.90
37158;DHT22;23050;51.776;22.638;2022-07-24T03:31:37;19.00;99.90
37158;DHT22;23050;51.776;22.638;2022-07-24T03:34:03;19.00;99.90
37158;DHT22;23050;51.776;22.638;2022-07-24T03:36:28;19.10;99.90
37158;DHT22;23050;51.776;22.638;2022-07-24T03:38:54;19.10;99.90
37158;DHT22;23050;51.776;22.638;2022-07-24T03:41:20;19.10;99.90
37158;DHT22;23050;51.776;22.638;2022-07-24T03:43:45;19.10;99.90
37158;DHT22;23050;51.776;22.638;2022-07-24T03:46:11;19.10;99.90
37158;DHT22;23050;51.776;22.638;2022-07-24T03:48:36;19.10;99.90
37158;DHT22;23050;51.776;22.638;2022-07-24T03:51:02;19.10;99.90
37158;DHT22;23050;51.776;22.638;2022-07-24T03:53:28;19.20;99.90
37158;DHT22;23050;51.776;22.638;2022-07-24T03:55:53;19.20;99.90
37158;DHT22;23050;51.776;22.638;2022-07-24T03:58:19;19.30;99.90
37158;DHT22;23050;51.776;22.638;2022-07-24T04:00:45;19.20;99.90
37158;DHT22;23050;51.776;22.638;2022-07-24T04:03:10;19.20;99.90
37158;DHT22;23050;51.776;22.638;2022-07-24T04:05:36;19.30;99.90
37158;DHT22;23050;51.776;22.638;2022-07-24T04:08:02;19.30;99.90
37158;DHT22;23050;51.776;22.638;2022-07-24T04:10:27;19.30;99.90
37158;DHT22;23050;51.776;22.638;2022-07-24T04:12:53;19.30;99.90
37158;DHT22;23050;51.776;22.638;2022-07-24T04:15:19;19.40;99.90
37158;DHT22;23050;51.776;22.638;2022-07-24T04:17:44;19.40;99.90
37158;DHT22;23050;51.776;22.638;2022-07-24T04:20:10;19.40;99.90
37158;DHT22;23050;51.776;22.638;2022-07-24T04:22:36;19.40;99.90
37158;DHT22;23050;51.776;22.638;2022-07-24T04:25:02;19.50;99.90
37158;DHT22;23050;51.776;22.638;2022-07-24T04:27:28;19.50;99.90
37158;DHT22;23050;51.776;22.638;2022-07-24T04:29:53;19.60;99.90
37158;DHT22;23050;51.776;22.638;2022-07-24T04:32:19;19.60;99.90
37158;DHT22;23050;51.776;22.638;2022-07-24T04:34:45;19.70;99.90
37158;DHT22;23050;51.776;22.638;2022-07-24T04:37:11;19.70;99.90
37158;DHT22;23050;51.776;22.638;2022-07-24T04:39:37;19.80;99.90
37158;DHT22;23050;51.776;22.638;2022-07-24T04:42:02;19.80;99.90
37158;DHT22;23050;51.776;22.638;2022-07-24T04:44:28;19.80;99.90
37158;DHT22;23050;51.776;22.638;2022-07-24T04:46:53;19.90;99.90
37158;DHT22;23050;51.776;22.638;2022-07-24T04:49:19;19.90;99.90
37158;DHT22;23050;51.776;22.638;2022-07-24T04:51:45;19.90;99.90
37158;DHT22;23050;51.776;22.638;2022-07-24T04:54:10;19.90;99.90
37158;DHT22;23050;51.776;22.638;2022-07-24T04:56:36;19.80;99.90
37158;DHT22;23050;51.776;22.638;2022-07-24T04:59:01;19.70;99.90
37158;DHT22;23050;51.776;22.638;2022-07-24T05:01:28;19.60;99.90
37158;DHT22;23050;51.776;22.638;2022-07-24T05:03:54;19.50;99.90
37158;DHT22;23050;51.776;22.638;2022-07-24T05:06:22;19.40;99.90
37158;DHT22;23050;51.776;22.638;2022-07-24T05:08:48;19.40;99.90
37158;DHT22;23050;51.776;22.638;2022-07-24T05:11:14;19.30;99.90
37158;DHT22;23050;51.776;22.638;2022-07-24T05:13:39;19.40;99.90
37158;DHT22;23050;51.776;22.638;2022-07-24T05:16:05;19.40;99.90
37158;DHT22;23050;51.776;22.638;2022-07-24T05:18:31;19.40;99.90
37158;DHT22;23050;51.776;22.638;2022-07-24T05:20:56;19.40;99.90
37158;DHT22;23050;51.776;22.638;2022-07-24T05:23:22;19.40;99.90
37158;DHT22;23050;51.776;22.638;2022-07-24T05:25:48;19.40;99.90
37158;DHT22;23050;51.776;22.638;2022-07-24T05:28:13;19.30;99.90
37158;DHT22;23050;51.776;22.638;2022-07-24T05:30:39;19.30;99.90
37158;DHT22;23050;51.776;22.638;2022-07-24T05:33:04;19.40;99.90
37158;DHT22;23050;51.776;22.638;2022-07-24T05:35:30;19.50;99.90
37158;DHT22;23050;51.776;22.638;2022-07-24T05:37:56;19.50;99.90
37158;DHT22;23050;51.776;22.638;2022-07-24T05:40:21;19.60;99.90
37158;DHT22;23050;51.776;22.638;2022-07-24T05:42:47;19.60;99.90
37158;DHT22;23050;51.776;22.638;2022-07-24T05:45:13;19.80;99.90
37158;DHT22;23050;51.776;22.638;2022-07-24T05:47:39;19.80;99.90
37158;DHT22;23050;51.776;22.638;2022-07-24T05:50:11;20.00;99.90
37158;DHT22;23050;51.776;22.638;2022-07-24T05:52:37;20.20;99.90
37158;DHT22;23050;51.776;22.638;2022-07-24T05:55:04;20.30;99.90
37158;DHT22;23050;51.776;22.638;2022-07-24T05:57:30;20.50;99.90
37158;DHT22;23050;51.776;22.638;2022-07-24T05:59:56;20.60;99.90
37158;DHT22;23050;51.776;22.638;2022-07-24T06:02:21;20.70;99.90
37158;DHT22;23050;51.776;22.638;2022-07-24T06:04:47;20.90;99.90
37158;DHT22;23050;51.776;22.638;2022-07-24T06:07:12;21.10;99.90
37158;DHT22;23050;51.776;22.638;2022-07-24T06:09:39;21.30;99.90
37158;DHT22;23050;51.776;22.638;2022-07-24T06:12:05;21.30;99.90
37158;DHT22;23050;51.776;22.638;2022-07-24T06:14:32;21.30;99.90
37158;DHT22;23050;51.776;22.638;2022-07-24T06:16:58;21.30;99.90
37158;DHT22;23050;51.776;22.638;2022-07-24T06:19:24;21.40;99.90
37158;DHT22;23050;51.776;22.638;2022-07-24T06:21:50;21.50;99.90
37158;DHT22;23050;51.776;22.638;2022-07-24T06:24:15;21.80;99.90
37158;DHT22;23050;51.776;22.638;2022-07-24T06:26:41;22.00;99.90
37158;DHT22;23050;51.776;22.638;2022-07-24T06:29:07;21.90;93.50
37158;DHT22;23050;51.776;22.638;2022-07-24T06:31:32;22.00;94.20
37158;DHT22;23050;51.776;22.638;2022-07-24T06:33:58;22.00;84.20
37158;DHT22;23050;51.776;22.638;2022-07-24T06:36:23;22.00;83.90
37158;DHT22;23050;51.776;22.638;2022-07-24T06:38:49;22.20;85.00
37158;DHT22;23050;51.776;22.638;2022-07-24T06:41:15;22.20;82.70
37158;DHT22;23050;51.776;22.638;2022-07-24T06:43:41;22.30;70.90
37158;DHT22;23050;51.776;22.638;2022-07-24T06:46:06;22.40;60.70
37158;DHT22;23050;51.776;22.638;2022-07-24T06:48:32;22.70;50.20
37158;DHT22;23050;51.776;22.638;2022-07-24T06:50:58;23.20;45.30
37158;DHT22;23050;51.776;22.638;2022-07-24T06:53:24;23.70;42.50
37158;DHT22;23050;51.776;22.638;2022-07-24T06:55:50;24.00;39.60
37158;DHT22;23050;51.776;22.638;2022-07-24T06:58:19;24.40;34.90
37158;DHT22;23050;51.776;22.638;2022-07-24T07:00:45;24.90;32.30
37158;DHT22;23050;51.776;22.638;2022-07-24T07:03:11;25.60;29.30
37158;DHT22;23050;51.776;22.638;2022-07-24T07:05:36;26.80;26.60
37158;DHT22;23050;51.776;22.638;2022-07-24T07:08:02;27.90;19.20
37158;DHT22;23050;51.776;22.638;2022-07-24T07:10:28;28.90;15.70
37158;DHT22;23050;51.776;22.638;2022-07-24T07:12:53;29.60;13.70
37158;DHT22;23050;51.776;22.638;2022-07-24T07:15:19;30.00;9.60
37158;DHT22;23050;51.776;22.638;2022-07-24T07:17:45;30.10;10.20
37158;DHT22;23050;51.776;22.638;2022-07-24T07:20:11;30.60;9.30
37158;DHT22;23050;51.776;22.638;2022-07-24T07:22:38;30.50;8.20
37158;DHT22;23050;51.776;22.638;2022-07-24T07:25:05;30.70;8.80
37158;DHT22;23050;51.776;22.638;2022-07-24T07:27:31;31.20;8.00
37158;DHT22;23050;51.776;22.638;2022-07-24T07:29:57;31.70;6.40
37158;DHT22;23050;51.776;22.638;2022-07-24T07:32:22;32.20;5.50
37158;DHT22;23050;51.776;22.638;2022-07-24T07:34:48;32.30;4.90
37158;DHT22;23050;51.776;22.638;2022-07-24T07:37:14;32.60;4.00
37158;DHT22;23050;51.776;22.638;2022-07-24T07:39:40;31.80;3.70
37158;DHT22;23050;51.776;22.638;2022-07-24T07:42:05;32.10;4.90
37158;DHT22;23050;51.776;22.638;2022-07-24T07:44:31;32.60;3.30
37158;DHT22;23050;51.776;22.638;2022-07-24T07:46:56;31.70;3.90
37158;DHT22;23050;51.776;22.638;2022-07-24T07:49:22;31.30;3.60
37158;DHT22;23050;51.776;22.638;2022-07-24T07:51:48;30.30;4.10
37158;DHT22;23050;51.776;22.638;2022-07-24T07:54:16;29.90;5.70
37158;DHT22;23050;51.776;22.638;2022-07-24T07:56:42;30.30;5.60
37158;DHT22;23050;51.776;22.638;2022-07-24T07:59:08;31.30;5.40
37158;DHT22;23050;51.776;22.638;2022-07-24T08:01:34;32.00;4.00
37158;DHT22;23050;51.776;22.638;2022-07-24T08:04:00;31.40;3.80
37158;DHT22;23050;51.776;22.638;2022-07-24T08:06:25;30.40;4.10
37158;DHT22;23050;51.776;22.638;2022-07-24T08:08:51;30.50;4.50
37158;DHT22;23050;51.776;22.638;2022-07-24T08:11:17;30.30;4.40
37158;DHT22;23050;51.776;22.638;2022-07-24T08:13:42;30.60;4.10
37158;DHT22;23050;51.776;22.638;2022-07-24T08:16:08;31.30;4.20
37158;DHT22;23050;51.776;22.638;2022-07-24T08:18:33;32.10;2.80
37158;DHT22;23050;51.776;22.638;2022-07-24T08:20:59;32.80;2.20
37158;DHT22;23050;51.776;22.638;2022-07-24T08:23:25;32.90;2.00
37158;DHT22;23050;51.776;22.638;2022-07-24T08:25:51;31.90;1.40
37158;DHT22;23050;51.776;22.638;2022-07-24T08:28:16;31.70;2.20
37158;DHT22;23050;51.776;22.638;2022-07-24T08:30:43;32.20;1.80
37158;DHT22;23050;51.776;22.638;2022-07-24T08:33:09;31.40;1.10
37158;DHT22;23050;51.776;22.638;2022-07-24T08:35:35;30.50;3.00
37158;DHT22;23050;51.776;22.638;2022-07-24T08:38:02;30.40;3.60
37158;DHT22;23050;51.776;22.638;2022-07-24T08:40:38;30.50;3.30
37158;DHT22;23050;51.776;22.638;2022-07-24T08:43:08;29.90;3.00
37158;DHT22;23050;51.776;22.638;2022-07-24T08:45:36;28.80;3.50
37158;DHT22;23050;51.776;22.638;2022-07-24T08:48:07;28.60;5.10
37158;DHT22;23050;51.776;22.638;2022-07-24T08:50:35;29.30;4.60
37158;DHT22;23050;51.776;22.638;2022-07-24T08:53:00;29.90;3.60
37158;DHT22;23050;51.776;22.638;2022-07-24T08:55:27;30.50;1.90
37158;DHT22;23050;51.776;22.638;2022-07-24T08:57:55;30.30;2.50
37158;DHT22;23050;51.776;22.638;2022-07-24T09:00:22;30.60;3.10
37158;DHT22;23050;51.776;22.638;2022-07-24T09:02:47;31.30;2.00
37158;DHT22;23050;51.776;22.638;2022-07-24T09:05:13;30.70;2.80
37158;DHT22;23050;51.776;22.638;2022-07-24T09:07:38;30.40;2.30
37158;DHT22;23050;51.776;22.638;2022-07-24T09:10:09;30.20;2.80
37158;DHT22;23050;51.776;22.638;2022-07-24T09:12:37;30.30;2.00
37158;DHT22;23050;51.776;22.638;2022-07-24T09:15:21;29.60;2.60
37158;DHT22;23050;51.776;22.638;2022-07-24T09:20:17;29.10;4.30
37158;DHT22;23050;51.776;22.638;2022-07-24T09:22:43;30.00;4.90
37158;DHT22;23050;51.776;22.638;2022-07-24T09:25:23;30.60;2.80
37158;DHT22;23050;51.776;22.638;2022-07-24T09:27:55;30.60;3.30
37158;DHT22;23050;51.776;22.638;2022-07-24T09:30:29;30.10;2.90
37158;DHT22;23050;51.776;22.638;2022-07-24T09:32:59;30.10;4.20
37158;DHT22;23050;51.776;22.638;2022-07-24T09:35:33;30.90;3.80
37158;DHT22;23050;51.776;22.638;2022-07-24T09:38:01;30.70;3.00
37158;DHT22;23050;51.776;22.638;2022-07-24T09:40:35;30.00;4.10
37158;DHT22;23050;51.776;22.638;2022-07-24T09:43:28;30.60;3.70
37158;DHT22;23050;51.776;22.638;2022-07-24T09:45:58;30.60;3.00
37158;DHT22;23050;51.776;22.638;2022-07-24T09:48:29;29.80;4.10
37158;DHT22;23050;51.776;22.638;2022-07-24T09:50:58;30.60;4.50
37158;DHT22;23050;51.776;22.638;2022-07-24T09:53:26;29.90;3.00
37158;DHT22;23050;51.776;22.638;2022-07-24T09:56:01;29.00;4.90
37158;DHT22;23050;51.776;22.638;2022-07-24T09:58:28;28.60;5.70
37158;DHT22;23050;51.776;22.638;2022-07-24T10:00:55;28.10;6.20
37158;DHT22;23050;51.776;22.638;2022-07-24T10:03:25;28.50;6.50
37158;DHT22;23050;51.776;22.638;2022-07-24T10:05:55;29.50;6.60
37158;DHT22;23050;51.776;22.638;2022-07-24T10:08:22;29.80;5.00
37158;DHT22;23050;51.776;22.638;2022-07-24T10:10:49;29.40;4.90
37158;DHT22;23050;51.776;22.638;2022-07-24T10:13:15;29.50;5.60
37158;DHT22;23050;51.776;22.638;2022-07-24T10:15:51;29.30;5.40
37158;DHT22;23050;51.776;22.638;2022-07-24T10:18:19;29.10;6.30
37158;DHT22;23050;51.776;22.638;2022-07-24T10:20:46;28.70;6.80
37158;DHT22;23050;51.776;22.638;2022-07-24T10:23:39;28.10;7.50
37158;DHT22;23050;51.776;22.638;2022-07-24T10:26:11;27.90;8.40
37158;DHT22;23050;51.776;22.638;2022-07-24T10:28:42;26.90;9.20
37158;DHT22;23050;51.776;22.638;2022-07-24T10:31:10;26.60;10.30
37158;DHT22;23050;51.776;22.638;2022-07-24T10:33:37;26.30;10.60
37158;DHT22;23050;51.776;22.638;2022-07-24T10:36:13;26.40;11.40
37158;DHT22;23050;51.776;22.638;2022-07-24T10:38:43;26.10;12.60
37158;DHT22;23050;51.776;22.638;2022-07-24T10:41:23;25.80;13.60
37158;DHT22;23050;51.776;22.638;2022-07-24T10:46:57;26.10;13.80
37158;DHT22;23050;51.776;22.638;2022-07-24T10:52:28;26.90;12.70
37158;DHT22;23050;51.776;22.638;2022-07-24T10:55:30;27.10;13.00
37158;DHT22;23050;51.776;22.638;2022-07-24T10:58:14;26.60;13.80
37158;DHT22;23050;51.776;22.638;2022-07-24T11:00:46;27.30;14.60
37158;DHT22;23050;51.776;22.638;2022-07-24T11:03:24;28.00;13.20
37158;DHT22;23050;51.776;22.638;2022-07-24T11:06:07;28.80;10.80
37158;DHT22;23050;51.776;22.638;2022-07-24T11:08:49;28.70;10.10
37158;DHT22;23050;51.776;22.638;2022-07-24T11:11:22;28.50;9.80
37158;DHT22;23050;51.776;22.638;2022-07-24T11:13:54;29.00;9.90
37158;DHT22;23050;51.776;22.638;2022-07-24T11:16:21;28.50;9.10
37158;DHT22;23050;51.776;22.638;2022-07-24T11:21:39;28.50;9.10
37158;DHT22;23050;51.776;22.638;2022-07-24T11:26:49;27.80;9.80
37158;DHT22;23050;51.776;22.638;2022-07-24T11:31:50;27.00;10.20
37158;DHT22;23050;51.776;22.638;2022-07-24T11:34:19;26.70;11.90
37158;DHT22;23050;51.776;22.638;2022-07-24T11:36:46;26.40;12.50
37158;DHT22;23050;51.776;22.638;2022-07-24T11:39:16;26.40;13.60
37158;DHT22;23050;51.776;22.638;2022-07-24T11:41:46;26.50;12.90
37158;DHT22;23050;51.776;22.638;2022-07-24T11:44:13;26.40;12.90
37158;DHT22;23050;51.776;22.638;2022-07-24T11:46:41;26.30;14.30
37158;DHT22;23050;51.776;22.638;2022-07-24T11:49:09;26.40;14.70
37158;DHT22;23050;51.776;22.638;2022-07-24T11:52:01;26.40;14.80
37158;DHT22;23050;51.776;22.638;2022-07-24T11:54:27;26.40;14.40
37158;DHT22;23050;51.776;22.638;2022-07-24T11:56:55;26.10;15.30
37158;DHT22;23050;51.776;22.638;2022-07-24T11:59:31;26.20;15.90
37158;DHT22;23050;51.776;22.638;2022-07-24T12:02:06;25.90;15.10
37158;DHT22;23050;51.776;22.638;2022-07-24T12:04:32;25.90;15.90
37158;DHT22;23050;51.776;22.638;2022-07-24T12:06:58;25.80;15.70
37158;DHT22;23050;51.776;22.638;2022-07-24T12:09:24;25.50;16.50
37158;DHT22;23050;51.776;22.638;2022-07-24T12:11:49;25.30;17.40
37158;DHT22;23050;51.776;22.638;2022-07-24T12:14:17;25.60;17.50
37158;DHT22;23050;51.776;22.638;2022-07-24T12:16:44;25.80;17.50
37158;DHT22;23050;51.776;22.638;2022-07-24T12:19:17;26.00;18.10
37158;DHT22;23050;51.776;22.638;2022-07-24T12:21:43;26.30;17.00
37158;DHT22;23050;51.776;22.638;2022-07-24T12:24:10;26.60;16.80
37158;DHT22;23050;51.776;22.638;2022-07-24T12:26:55;26.90;15.50
37158;DHT22;23050;51.776;22.638;2022-07-24T12:29:22;26.90;16.70
37158;DHT22;23050;51.776;22.638;2022-07-24T12:31:48;27.30;15.20
37158;DHT22;23050;51.776;22.638;2022-07-24T12:34:15;27.50;15.20
37158;DHT22;23050;51.776;22.638;2022-07-24T12:36:41;27.70;14.90
37158;DHT22;23050;51.776;22.638;2022-07-24T12:39:07;27.60;14.40
37158;DHT22;23050;51.776;22.638;2022-07-24T12:41:43;27.80;14.90
37158;DHT22;23050;51.776;22.638;2022-07-24T12:44:09;27.80;13.90
37158;DHT22;23050;51.776;22.638;2022-07-24T12:46:44;27.60;13.70
37158;DHT22;23050;51.776;22.638;2022-07-24T12:49:12;28.30;14.40
37158;DHT22;23050;51.776;22.638;2022-07-24T12:51:55;28.70;12.80
37158;DHT22;23050;51.776;22.638;2022-07-24T12:54:30;29.10;12.70
37158;DHT22;23050;51.776;22.638;2022-07-24T12:56:59;29.20;10.30
37158;DHT22;23050;51.776;22.638;2022-07-24T12:59:33;28.50;10.70
37158;DHT22;23050;51.776;22.638;2022-07-24T13:02:16;28.50;10.90
37158;DHT22;23050;51.776;22.638;2022-07-24T13:05:03;28.60;11.80
37158;DHT22;23050;51.776;22.638;2022-07-24T13:07:28;28.60;11.80
37158;DHT22;23050;51.776;22.638;2022-07-24T13:09:54;28.90;11.90
37158;DHT22;23050;51.776;22.638;2022-07-24T13:12:21;28.40;12.50
37158;DHT22;23050;51.776;22.638;2022-07-24T13:14:49;28.20;12.80
37158;DHT22;23050;51.776;22.638;2022-07-24T13:17:18;27.50;14.70
37158;DHT22;23050;51.776;22.638;2022-07-24T13:19:46;27.00;15.20
37158;DHT22;23050;51.776;22.638;2022-07-24T13:22:13;26.90;17.00
37158;DHT22;23050;51.776;22.638;2022-07-24T13:24:38;26.70;17.30
37158;DHT22;23050;51.776;22.638;2022-07-24T13:27:08;26.20;19.60
37158;DHT22;23050;51.776;22.638;2022-07-24T13:29:35;26.10;21.50
37158;DHT22;23050;51.776;22.638;2022-07-24T13:32:01;25.90;20.90
37158;DHT22;23050;51.776;22.638;2022-07-24T13:34:27;25.70;22.60
37158;DHT22;23050;51.776;22.638;2022-07-24T13:36:54;25.80;22.90
37158;DHT22;23050;51.776;22.638;2022-07-24T13:39:21;25.50;21.70
37158;DHT22;23050;51.776;22.638;2022-07-24T13:41:47;25.70;22.60
37158;DHT22;23050;51.776;22.638;2022-07-24T13:44:13;26.00;22.50
37158;DHT22;23050;51.776;22.638;2022-07-24T13:46:39;26.70;20.80
37158;DHT22;23050;51.776;22.638;2022-07-24T13:49:05;27.60;20.50
37158;DHT22;23050;51.776;22.638;2022-07-24T13:51:32;28.30;18.50
37158;DHT22;23050;51.776;22.638;2022-07-24T13:53:58;29.00;16.40
37158;DHT22;23050;51.776;22.638;2022-07-24T13:56:25;29.20;15.50
37158;DHT22;23050;51.776;22.638;2022-07-24T13:58:52;29.00;16.20
37158;DHT22;23050;51.776;22.638;2022-07-24T14:01:17;29.70;14.50
37158;DHT22;23050;51.776;22.638;2022-07-24T14:03:45;30.10;13.60
37158;DHT22;23050;51.776;22.638;2022-07-24T14:06:11;30.10;12.50
37158;DHT22;23050;51.776;22.638;2022-07-24T14:08:37;30.50;11.80
37158;DHT22;23050;51.776;22.638;2022-07-24T14:11:03;30.60;11.50
37158;DHT22;23050;51.776;22.638;2022-07-24T14:13:29;30.30;11.30
37158;DHT22;23050;51.776;22.638;2022-07-24T14:15:55;29.60;12.50
37158;DHT22;23050;51.776;22.638;2022-07-24T14:18:21;28.90;13.90
37158;DHT22;23050;51.776;22.638;2022-07-24T14:20:47;29.00;15.20
37158;DHT22;23050;51.776;22.638;2022-07-24T14:23:13;29.10;15.00
37158;DHT22;23050;51.776;22.638;2022-07-24T14:25:39;28.50;14.50
37158;DHT22;23050;51.776;22.638;2022-07-24T14:28:04;28.00;14.80
37158;DHT22;23050;51.776;22.638;2022-07-24T14:30:30;27.80;17.20
37158;DHT22;23050;51.776;22.638;2022-07-24T14:32:56;27.50;19.10
37158;DHT22;23050;51.776;22.638;2022-07-24T14:35:22;27.20;20.70
37158;DHT22;23050;51.776;22.638;2022-07-24T14:37:47;27.00;21.10
37158;DHT22;23050;51.776;22.638;2022-07-24T14:40:13;27.60;21.70
37158;DHT22;23050;51.776;22.638;2022-07-24T14:42:39;27.30;19.90
37158;DHT22;23050;51.776;22.638;2022-07-24T14:45:05;27.20;20.00
37158;DHT22;23050;51.776;22.638;2022-07-24T14:47:31;27.70;20.30
37158;DHT22;23050;51.776;22.638;2022-07-24T14:49:57;27.30;19.00
37158;DHT22;23050;51.776;22.638;2022-07-24T14:52:23;27.20;20.30
37158;DHT22;23050;51.776;22.638;2022-07-24T14:54:49;27.10;22.10
37158;DHT22;23050;51.776;22.638;2022-07-24T14:57:15;27.60;20.80
37158;DHT22;23050;51.776;22.638;2022-07-24T14:59:41;27.50;18.80
37158;DHT22;23050;51.776;22.638;2022-07-24T15:02:08;27.40;18.60
37158;DHT22;23050;51.776;22.638;2022-07-24T15:04:34;27.50;18.10
37158;DHT22;23050;51.776;22.638;2022-07-24T15:07:00;27.20;17.40
37158;DHT22;23050;51.776;22.638;2022-07-24T15:09:26;27.50;17.50
37158;DHT22;23050;51.776;22.638;2022-07-24T15:11:52;27.60;17.50
37158;DHT22;23050;51.776;22.638;2022-07-24T15:14:18;27.10;18.00
37158;DHT22;23050;51.776;22.638;2022-07-24T15:16:43;27.10;18.50
37158;DHT22;23050;51.776;22.638;2022-07-24T15:19:09;27.40;19.20
37158;DHT22;23050;51.776;22.638;2022-07-24T15:21:36;27.70;17.10
37158;DHT22;23050;51.776;22.638;2022-07-24T15:24:02;27.30;16.80
37158;DHT22;23050;51.776;22.638;2022-07-24T15:26:28;27.10;18.40
37158;DHT22;23050;51.776;22.638;2022-07-24T15:28:54;27.10;18.40
37158;DHT22;23050;51.776;22.638;2022-07-24T15:31:19;27.50;19.20
37158;DHT22;23050;51.776;22.638;2022-07-24T15:33:47;27.40;16.60
37158;DHT22;23050;51.776;22.638;2022-07-24T15:36:14;27.50;16.60
37158;DHT22;23050;51.776;22.638;2022-07-24T15:38:40;27.00;16.10